Time;durP1;ratioP1;P1;durP2;ratioP2;P2;SDS_P1;SDS_P2;PMS_P1;PMS_P2;Temp;Humidity;BMP_temperature;BMP_pressure;BME280_temperature;BME280_humidity;BME280_pressure;Samples;Min_cycle;Max_cycle;Signal;HPM_P1;HPM_P2
2023/03/22 00:01:57;;;;;;;7.05;3.83;;;;;;;8.00;100.00;98620.19;5031283;28;20033;-78
2023/03/22 00:04:23;;;;;;;5.68;3.45;;;;;;;8.00;100.00;98603.22;5029054;28;20022;-77
2023/03/22 00:06:48;;;;;;;7.63;3.50;;;;;;;7.84;100.00;98590.81;5024102;28;20104;-76
2023/03/22 00:09:13;;;;;;;10.18;3.35;;;;;;;8.00;100.00;98622.06;5022381;28;20067;-76
2023/03/22 00:11:39;;;;;;;5.95;3.40;;;;;;;7.78;100.00;98599.63;5016962;28;20037;-75
2023/03/22 00:14:05;;;;;;;5.95;3.35;;;;;;;7.97;100.00;98617.88;5015934;28;20014;-77
2023/03/22 00:16:30;;;;;;;7.10;3.28;;;;;;;7.93;100.00;98624.66;5000525;28;20443;-77
2023/03/22 00:18:55;;;;;;;9.13;3.33;;;;;;;7.90;100.00;98630.44;5008499;28;20455;-76
2023/03/22 00:21:21;;;;;;;6.82;3.42;;;;;;;7.86;100.00;98634.56;5008787;28;20399;-77
2023/03/22 00:23:46;;;;;;;7.13;3.67;;;;;;;7.65;100.00;98605.72;4997087;28;20064;-76
2023/03/22 00:26:13;;;;;;;5.47;3.30;;;;;;;7.70;100.00;98627.50;4998784;28;20029;-77
2023/03/22 00:28:39;;;;;;;6.47;3.28;;;;;;;7.38;100.00;98589.25;4995067;28;20022;-77
2023/03/22 00:31:05;;;;;;;7.45;3.30;;;;;;;7.36;100.00;98604.78;4993683;28;20029;-77
2023/03/22 00:33:31;;;;;;;6.18;3.85;;;;;;;7.40;100.00;98602.53;5008220;28;20026;-77
2023/03/22 00:35:59;;;;;;;9.15;4.22;;;;;;;7.14;100.00;98586.88;4994735;28;20165;-77
2023/03/22 00:38:32;;;;;;;4.68;3.50;;;;;;;7.25;100.00;98606.06;5010759;28;20026;-76
2023/03/22 00:41:06;;;;;;;7.85;3.75;;;;;;;7.23;100.00;98612.63;4995769;28;20032;-76
2023/03/22 00:43:31;;;;;;;7.13;3.45;;;;;;;6.99;100.00;98581.47;5013189;28;20022;-77
2023/03/22 00:45:56;;;;;;;5.50;3.50;;;;;;;6.87;100.00;98586.50;5014697;28;20040;-76
2023/03/22 00:48:22;;;;;;;9.10;3.22;;;;;;;6.72;100.00;98570.34;4995933;28;20032;-76
2023/03/22 00:50:47;;;;;;;7.60;3.40;;;;;;;6.83;100.00;98593.25;4996995;28;20048;-76
2023/03/22 00:53:13;;;;;;;7.30;3.25;;;;;;;6.64;100.00;98570.44;4994935;28;20021;-77
2023/03/22 00:55:38;;;;;;;6.05;4.22;;;;;;;6.79;100.00;98611.63;4998222;28;20025;-77
2023/03/22 00:58:03;;;;;;;9.18;3.53;;;;;;;6.78;100.00;98609.94;4996131;28;20033;-79
2023/03/22 01:00:30;;;;;;;6.97;3.63;;;;;;;6.77;100.00;98586.78;5002802;28;20034;-77
2023/03/22 01:02:58;;;;;;;5.38;3.00;;;;;;;6.55;100.00;98576.94;5010449;28;20596;-77
2023/03/22 01:05:24;;;;;;;5.57;3.60;;;;;;;6.65;100.00;98604.34;5000510;28;20040;-76
2023/03/22 01:07:50;;;;;;;9.38;3.70;;;;;;;6.61;100.00;98602.25;4994075;28;20113;-77
2023/03/22 01:10:17;;;;;;;11.77;4.78;;;;;;;6.25;100.00;98549.16;4993795;28;20034;-76
2023/03/22 01:12:43;;;;;;;7.85;4.07;;;;;;;6.62;100.00;98610.09;4995572;28;20033;-76
2023/03/22 01:15:09;;;;;;;8.63;3.88;;;;;;;6.39;100.00;98577.91;4992195;28;20030;-77
2023/03/22 01:17:35;;;;;;;7.03;3.60;;;;;;;6.51;100.00;98605.19;5001725;28;20014;-77
2023/03/22 01:20:00;;;;;;;8.25;3.55;;;;;;;6.22;100.00;98560.28;4998964;28;20041;-76
2023/03/22 01:22:26;;;;;;;11.13;3.92;;;;;;;6.38;100.00;98583.47;4997547;28;20460;-76
2023/03/22 01:24:51;;;;;;;9.70;3.78;;;;;;;6.33;100.00;98590.22;5014700;28;20072;-76
2023/03/22 01:27:16;;;;;;;11.50;3.60;;;;;;;6.26;100.00;98577.69;5016980;28;20037;-76
2023/03/22 01:29:42;;;;;;;7.13;3.33;;;;;;;6.15;100.00;98560.16;4997641;28;20030;-76
2023/03/22 01:32:07;;;;;;;5.45;3.17;;;;;;;6.12;100.00;98582.00;4995980;28;20022;-77
2023/03/22 01:34:32;;;;;;;8.73;4.18;;;;;;;5.49;100.00;98472.03;4995440;28;20022;-78
2023/03/22 01:36:57;;;;;;;9.18;4.00;;;;;;;6.17;100.00;98581.47;5014576;28;20033;-77
2023/03/22 01:39:23;;;;;;;8.32;3.35;;;;;;;5.86;100.00;98526.78;4994856;28;20026;-77
2023/03/22 01:41:48;;;;;;;14.52;3.53;;;;;;;6.14;100.00;98555.81;4997215;28;20579;-76
2023/03/22 01:44:21;;;;;;;8.90;3.42;;;;;;;6.03;100.00;98542.81;5013720;28;20034;-77
2023/03/22 01:46:49;;;;;;;7.93;4.53;;;;;;;6.25;100.00;98559.91;4995092;28;20030;-77
2023/03/22 01:49:24;;;;;;;7.55;4.35;;;;;;;5.92;100.00;98511.81;4995073;28;20503;-76
2023/03/22 01:51:52;;;;;;;8.23;3.83;;;;;;;6.38;100.00;98581.63;4995632;28;20032;-76
2023/03/22 01:54:41;;;;;;;6.50;3.50;;;;;;;6.50;100.00;98582.03;4996191;28;20048;-77
2023/03/22 01:57:08;;;;;;;8.65;4.60;;;;;;;6.49;100.00;98572.28;4991472;28;20062;-77
2023/03/22 01:59:34;;;;;;;10.15;4.45;;;;;;;6.50;100.00;98576.66;5005455;28;20025;-76
2023/03/22 02:02:01;;;;;;;7.93;4.60;;;;;;;6.30;100.00;98566.41;5011382;28;20083;-76
2023/03/22 02:04:33;;;;;;;10.45;5.03;;;;;;;6.05;100.00;98538.06;5013502;28;20033;-77
2023/03/22 02:07:02;;;;;;;6.55;4.18;;;;;;;5.85;100.00;98541.25;5003416;28;20078;-77
2023/03/22 02:09:29;;;;;;;;;;;;;;;5.88;100.00;98570.41;5011853;28;20029;-77
2023/03/22 02:12:08;;;;;;;7.97;4.05;;;;;;;5.67;100.00;98565.69;5007424;28;20291;-76
2023/03/22 02:15:05;;;;;;;8.30;4.80;;;;;;;5.64;100.00;98563.38;4998957;28;20049;-77
2023/03/22 02:18:05;;;;;;;11.68;4.63;;;;;;;5.59;100.00;98573.78;4992243;28;20038;-76
2023/03/22 02:21:03;;;;;;;11.27;6.78;;;;;;;5.60;100.00;98582.69;4985848;28;20026;-77
2023/03/22 02:23:50;;;;;;;9.32;5.97;;;;;;;5.54;100.00;98584.22;5013264;28;20056;-76
2023/03/22 02:26:53;;;;;;;15.63;6.85;;;;;;;5.65;100.00;98581.13;5002769;28;20570;-80
2023/03/22 02:29:35;;;;;;;13.45;7.00;;;;;;;5.69;100.00;98581.63;4990325;28;20052;-76
2023/03/22 02:32:24;;;;;;;15.63;7.32;;;;;;;5.58;100.00;98582.88;5014010;28;20549;-76
2023/03/22 02:35:05;;;;;;;11.60;7.18;;;;;;;5.65;100.00;98580.28;4996283;28;20057;-76
2023/03/22 02:37:37;;;;;;;13.00;6.68;;;;;;;5.47;100.00;98577.88;5004917;28;20025;-76
2023/03/22 02:40:16;;;;;;;17.73;8.13;;;;;;;5.24;100.00;98546.50;5009883;28;20065;-77
2023/03/22 02:42:55;;;;;;;12.05;6.47;;;;;;;5.45;100.00;98578.06;4995396;28;20065;-76
2023/03/22 02:45:30;;;;;;;14.80;7.32;;;;;;;5.38;100.00;98577.09;4981388;28;20034;-79
2023/03/22 02:48:10;;;;;;;14.50;7.32;;;;;;;5.38;100.00;98584.31;4995179;28;20034;-77
2023/03/22 02:50:45;;;;;;;8.65;5.82;;;;;;;5.20;100.00;98557.75;4992593;28;20496;-77
2023/03/22 02:53:19;;;;;;;11.90;5.88;;;;;;;5.23;100.00;98570.78;4994843;28;20091;-77
2023/03/22 02:55:57;;;;;;;8.48;4.95;;;;;;;5.03;100.00;98565.88;5009829;28;20500;-77
2023/03/22 02:58:27;;;;;;;8.35;5.05;;;;;;;5.15;100.00;98554.75;4995019;28;20023;-76
2023/03/22 03:00:59;;;;;;;11.55;5.57;;;;;;;4.96;100.00;98531.88;4995752;28;20026;-77
2023/03/22 03:03:28;;;;;;;11.70;5.20;;;;;;;5.14;100.00;98556.59;4994468;28;20036;-77
2023/03/22 03:06:01;;;;;;;8.10;4.45;;;;;;;5.21;100.00;98562.94;5036945;22;20065;-62
2023/03/22 03:08:29;;;;;;;8.90;4.80;;;;;;;5.20;100.00;98568.47;5013106;28;20033;-58
2023/03/22 03:10:54;;;;;;;9.27;5.28;;;;;;;5.15;100.00;98560.13;5006054;28;20195;-58
2023/03/22 03:13:20;;;;;;;8.13;4.88;;;;;;;5.11;100.00;98566.81;5007954;28;20855;-58
2023/03/22 03:15:51;;;;;;;8.93;4.65;;;;;;;5.11;100.00;98564.13;5006215;28;20025;-58
2023/03/22 03:18:33;;;;;;;10.00;5.13;;;;;;;5.09;100.00;98566.19;5007344;28;20091;-58
2023/03/22 03:21:20;;;;;;;10.13;5.88;;;;;;;4.97;100.00;98566.53;5007616;28;20032;-58
2023/03/22 03:24:10;;;;;;;14.30;6.50;;;;;;;4.96;100.00;98578.28;5011362;28;20121;-58
2023/03/22 03:26:57;;;;;;;10.13;5.63;;;;;;;4.92;100.00;98582.31;5016278;28;20029;-58
2023/03/22 03:29:37;;;;;;;9.48;5.32;;;;;;;4.83;100.00;98586.03;5009354;28;20025;-58
2023/03/22 03:32:11;;;;;;;9.07;5.55;;;;;;;4.80;100.00;98581.84;5027216;28;20037;-58
2023/03/22 03:35:09;;;;;;;10.35;5.45;;;;;;;4.88;100.00;98582.84;5009115;28;20026;-58
2023/03/22 03:37:41;;;;;;;10.02;5.68;;;;;;;4.96;100.00;98580.13;5011563;28;20036;-58
2023/03/22 03:40:16;;;;;;;10.20;6.05;;;;;;;4.99;100.00;98577.94;5010531;28;20390;-58
2023/03/22 03:42:51;;;;;;;8.23;4.60;;;;;;;4.94;100.00;98579.47;5011437;28;20022;-58
2023/03/22 03:45:18;;;;;;;14.70;5.07;;;;;;;4.87;100.00;98576.63;5012605;28;20039;-58
2023/03/22 03:47:45;;;;;;;12.27;5.32;;;;;;;4.79;100.00;98579.34;5012865;28;20025;-58
2023/03/22 03:50:14;;;;;;;11.82;4.85;;;;;;;4.73;100.00;98580.03;5004973;28;20476;-58
2023/03/22 03:52:40;;;;;;;9.18;5.38;;;;;;;4.68;100.00;98588.59;5016530;28;20392;-58
2023/03/22 03:55:06;;;;;;;9.38;5.07;;;;;;;4.65;100.00;98593.47;5010572;28;20504;-58
2023/03/22 03:57:32;;;;;;;9.95;5.57;;;;;;;4.57;100.00;98592.47;5010106;28;20029;-58
2023/03/22 03:59:57;;;;;;;8.73;5.88;;;;;;;4.55;100.00;98589.09;5010778;28;20128;-58
2023/03/22 04:02:22;;;;;;;10.15;5.93;;;;;;;4.47;100.00;98590.97;5013638;28;20029;-58
2023/03/22 04:04:48;;;;;;;9.85;6.00;;;;;;;4.43;100.00;98594.97;5015166;28;20048;-58
2023/03/22 04:07:13;;;;;;;13.93;6.30;;;;;;;4.38;100.00;98595.50;5028156;28;20033;-58
2023/03/22 04:09:40;;;;;;;9.65;5.95;;;;;;;4.36;100.00;98594.84;5006484;28;20021;-57
2023/03/22 04:12:08;;;;;;;11.52;6.28;;;;;;;4.33;100.00;98589.81;5012080;28;20064;-57
2023/03/22 04:14:34;;;;;;;10.57;5.73;;;;;;;4.22;100.00;98582.97;5008186;28;20025;-58
2023/03/22 04:16:59;;;;;;;12.65;6.80;;;;;;;4.31;100.00;98589.16;5010757;28;20286;-57
2023/03/22 04:19:24;;;;;;;12.13;6.25;;;;;;;4.18;100.00;98579.78;5010397;28;20060;-58
2023/03/22 04:21:51;;;;;;;35.80;13.82;;;;;;;4.23;100.00;98594.50;5027192;28;20025;-58
2023/03/22 04:24:18;;;;;;;28.65;12.02;;;;;;;4.16;100.00;98589.81;5010495;28;20026;-58
2023/03/22 04:26:43;;;;;;;30.48;13.30;;;;;;;4.18;100.00;98582.44;5010192;28;20485;-58
2023/03/22 04:29:08;;;;;;;44.03;15.18;;;;;;;4.11;100.00;98581.47;5014318;28;20025;-58
2023/03/22 04:31:37;;;;;;;56.72;21.08;;;;;;;4.09;100.00;98561.22;5012410;28;20091;-58
2023/03/22 04:34:04;;;;;;;64.80;24.85;;;;;;;4.16;100.00;98573.75;5004514;28;20045;-57
2023/03/22 04:36:35;;;;;;;61.05;22.77;;;;;;;4.16;100.00;98555.00;5014972;28;20052;-57
2023/03/22 04:39:04;;;;;;;57.38;22.27;;;;;;;4.17;100.00;98567.41;5011053;28;20519;-58
2023/03/22 04:41:31;;;;;;;39.63;15.05;;;;;;;4.14;100.00;98567.75;5012301;28;20517;-58
2023/03/22 04:43:56;;;;;;;43.35;17.08;;;;;;;4.06;100.00;98562.41;5004717;28;20083;-57
2023/03/22 04:46:22;;;;;;;48.85;20.85;;;;;;;4.06;100.00;98559.72;5007182;28;20041;-57
2023/03/22 04:48:48;;;;;;;52.20;22.00;;;;;;;3.97;100.00;98557.19;5017138;28;20400;-58
2023/03/22 04:51:13;;;;;;;44.85;19.45;;;;;;;3.97;100.00;98557.19;5014248;28;20025;-57
2023/03/22 04:53:38;;;;;;;32.17;13.68;;;;;;;3.89;100.00;98558.88;5015998;28;20022;-57
2023/03/22 04:56:06;;;;;;;41.47;16.50;;;;;;;3.88;100.00;98559.06;5016134;28;20106;-57
2023/03/22 04:58:34;;;;;;;45.10;19.50;;;;;;;3.91;100.00;98558.72;5014398;28;20083;-57
2023/03/22 05:01:00;;;;;;;42.92;18.52;;;;;;;3.97;100.00;98560.72;5006538;28;20076;-57
2023/03/22 05:03:26;;;;;;;42.17;15.80;;;;;;;4.01;100.00;98537.97;5014260;28;20075;-57
2023/03/22 05:05:53;;;;;;;35.50;14.13;;;;;;;3.98;100.00;98543.63;5028141;28;20037;-57
2023/03/22 05:08:21;;;;;;;27.20;9.40;;;;;;;3.89;100.00;98550.84;5020869;28;20090;-58
2023/03/22 05:10:46;;;;;;;12.63;6.93;;;;;;;3.86;100.00;98536.97;5012040;28;20022;-57
2023/03/22 05:13:12;;;;;;;9.30;5.93;;;;;;;3.78;100.00;98537.78;5013343;28;20075;-57
2023/03/22 05:15:38;;;;;;;9.93;5.65;;;;;;;3.77;100.00;98533.44;5014728;28;20108;-57
2023/03/22 05:18:04;;;;;;;15.48;6.05;;;;;;;3.69;100.00;98534.28;5016015;28;20116;-57
2023/03/22 05:20:29;;;;;;;13.20;6.60;;;;;;;3.94;100.00;98531.59;5013900;28;20113;-57
2023/03/22 05:22:55;;;;;;;13.23;6.88;;;;;;;4.22;100.00;98545.47;5006285;28;20021;-57
2023/03/22 05:25:21;;;;;;;17.23;7.55;;;;;;;4.29;100.00;98532.22;5013256;28;20034;-57
2023/03/22 05:27:49;;;;;;;11.68;6.50;;;;;;;4.43;100.00;98544.94;5016892;28;20423;-57
2023/03/22 05:30:15;;;;;;;10.68;6.68;;;;;;;4.47;100.00;98529.34;5016030;28;20037;-57
2023/03/22 05:32:44;;;;;;;12.73;6.65;;;;;;;4.62;100.00;98535.69;5009006;28;20040;-57
2023/03/22 05:35:10;;;;;;;;;;;;;;;4.70;100.00;98540.19;5014617;28;20026;-57
2023/03/22 05:37:36;;;;;;;10.27;6.13;;;;;;;4.79;100.00;98537.31;5015057;28;19913;-57
2023/03/22 05:40:04;;;;;;;11.32;6.20;;;;;;;4.92;100.00;98539.41;5014519;28;20064;-58
2023/03/22 05:42:30;;;;;;;9.77;6.45;;;;;;;5.08;100.00;98533.16;5017695;28;20453;-57
2023/03/22 05:44:55;;;;;;;10.02;6.68;;;;;;;5.20;100.00;98533.59;5016962;28;20049;-57
2023/03/22 05:47:21;;;;;;;11.18;6.22;;;;;;;5.29;100.00;98535.22;5007720;28;20037;-57
2023/03/22 05:49:46;;;;;;;9.27;6.00;;;;;;;5.44;100.00;98524.56;5029778;28;20028;-57
2023/03/22 05:52:12;;;;;;;8.50;5.47;;;;;;;5.56;100.00;98527.69;5017512;28;20025;-57
2023/03/22 05:54:37;;;;;;;7.78;4.72;;;;;;;5.63;100.00;98517.91;5007798;28;20121;-58
2023/03/22 05:57:03;;;;;;;7.15;4.90;;;;;;;5.83;100.00;98527.16;5011940;28;20056;-57
2023/03/22 05:59:28;;;;;;;10.40;5.30;;;;;;;5.98;100.00;98523.72;5011573;28;20115;-57
2023/03/22 06:01:54;;;;;;;9.93;4.80;;;;;;;6.25;100.00;98512.38;5013514;28;20032;-57
2023/03/22 06:04:19;;;;;;;12.93;4.57;;;;;;;6.94;100.00;98506.75;5010982;28;20087;-57
2023/03/22 06:06:45;;;;;;;6.30;3.60;;;;;;;8.63;100.00;98495.50;5019538;28;20087;-57
2023/03/22 06:09:13;;;;;;;6.38;4.18;;;;;;;10.46;100.00;98475.56;5013778;28;20132;-57
2023/03/22 06:11:38;;;;;;;17.55;3.90;;;;;;;11.68;100.00;98478.41;5024856;28;20033;-57
2023/03/22 06:14:04;;;;;;;8.60;3.35;;;;;;;12.43;100.00;98478.47;5012753;28;20322;-57
2023/03/22 06:16:29;;;;;;;5.95;3.28;;;;;;;13.42;100.00;98481.13;5010688;28;20394;-57
2023/03/22 06:18:55;;;;;;;7.93;3.00;;;;;;;14.92;100.00;98476.41;5015414;28;20423;-58
2023/03/22 06:21:20;;;;;;;6.22;3.10;;;;;;;16.46;99.46;98485.56;5017736;28;20365;-58
2023/03/22 06:23:46;;;;;;;4.65;2.85;;;;;;;18.08;76.49;98485.16;5013479;28;20025;-57
2023/03/22 06:26:11;;;;;;;5.72;2.75;;;;;;;19.15;70.92;98487.84;5012495;28;20497;-58
2023/03/22 06:28:37;;;;;;;10.55;2.83;;;;;;;20.40;60.44;98483.19;5007617;28;20025;-58
2023/03/22 06:31:09;;;;;;;3.78;2.33;;;;;;;21.88;55.63;98481.94;5010383;28;20049;-59
2023/03/22 06:33:36;;;;;;;6.47;2.55;;;;;;;23.89;48.49;98489.88;5013223;28;20060;-58
2023/03/22 06:36:02;;;;;;;9.15;3.00;;;;;;;24.41;47.54;98486.00;5012445;28;20152;-58
2023/03/22 06:38:29;;;;;;;4.22;2.50;;;;;;;24.27;45.27;98491.50;5007682;28;20336;-58
2023/03/22 06:40:55;;;;;;;5.30;2.30;;;;;;;24.49;44.35;98482.56;5010669;28;20022;-64
2023/03/22 06:43:20;;;;;;;5.25;2.60;;;;;;;25.03;43.32;98485.78;5021514;23;20042;-84
2023/03/22 06:45:47;;;;;;;3.70;2.40;;;;;;;26.16;41.73;98488.97;5028892;28;20093;-83
2023/03/22 06:48:12;;;;;;;3.22;2.08;;;;;;;26.16;40.39;98480.66;5003645;28;20025;-82
2023/03/22 06:50:37;;;;;;;3.95;2.45;;;;;;;24.79;41.97;98476.84;4999763;28;20022;-79
2023/03/22 06:53:04;;;;;;;7.70;2.95;;;;;;;25.32;40.33;98488.28;4996230;28;20026;-75
2023/03/22 06:55:33;;;;;;;4.68;2.55;;;;;;;26.48;39.52;98482.34;5012610;28;20033;-77
2023/03/22 06:57:58;;;;;;;;;;;;;;;26.59;38.86;98491.25;5004029;28;20109;-74
2023/03/22 07:00:23;;;;;;;5.83;3.10;;;;;;;26.96;38.43;98481.69;5015246;28;20011;-75
2023/03/22 07:02:49;;;;;;;6.93;3.10;;;;;;;27.88;37.31;98478.28;5005848;28;20399;-74
2023/03/22 07:05:14;;;;;;;6.60;2.83;;;;;;;28.42;36.80;98482.31;5011742;28;20037;-75
2023/03/22 07:07:39;;;;;;;4.40;2.40;;;;;;;28.96;35.26;98481.94;5005674;28;20026;-74
2023/03/22 07:10:06;;;;;;;5.25;2.85;;;;;;;27.62;35.91;98479.00;4993668;28;20092;-74
2023/03/22 07:12:32;;;;;;;5.63;2.72;;;;;;;27.71;36.69;98481.78;5017373;28;20056;-75
2023/03/22 07:14:57;;;;;;;7.78;2.88;;;;;;;25.99;38.97;98479.38;5007798;28;20060;-74
2023/03/22 07:17:23;;;;;;;5.93;2.67;;;;;;;26.26;37.58;98462.94;5017765;28;20025;-77
2023/03/22 07:19:48;;;;;;;6.93;2.83;;;;;;;25.24;39.77;98474.34;4997746;28;20021;-77
2023/03/22 07:22:13;;;;;;;6.78;3.45;;;;;;;24.93;40.51;98474.91;5034049;28;20053;-76
2023/03/22 07:24:39;;;;;;;5.95;3.00;;;;;;;24.21;41.79;98459.53;5012777;28;20033;-76
2023/03/22 07:27:04;;;;;;;6.40;2.92;;;;;;;23.28;43.42;98478.50;5033933;28;20029;-76
2023/03/22 07:29:30;;;;;;;7.15;3.13;;;;;;;21.87;45.99;98480.28;5033717;28;20022;-75
2023/03/22 07:31:55;;;;;;;7.75;2.92;;;;;;;21.35;48.43;98473.38;5017683;28;20106;-83
2023/03/22 07:34:20;;;;;;;4.65;2.72;;;;;;;21.92;46.63;98468.41;5019125;28;20022;-75
2023/03/22 07:36:46;;;;;;;7.30;3.03;;;;;;;22.82;44.47;98479.00;5028754;28;20406;-73
2023/03/22 07:39:12;;;;;;;9.68;3.15;;;;;;;23.00;44.77;98480.19;5014778;28;20068;-72
2023/03/22 07:41:37;;;;;;;7.38;3.13;;;;;;;23.58;42.95;98469.00;5003989;28;20084;-77
2023/03/22 07:44:02;;;;;;;5.47;2.80;;;;;;;24.49;42.59;98481.75;5002915;28;20168;-83
2023/03/22 07:46:28;;;;;;;5.43;2.47;;;;;;;24.70;41.78;98465.63;4999299;28;20037;-75
2023/03/22 07:48:53;;;;;;;6.15;2.65;;;;;;;26.82;39.57;98467.06;5001988;28;20026;-79
2023/03/22 07:51:18;;;;;;;11.15;2.33;;;;;;;28.26;37.21;98455.34;5001781;28;20038;-82
2023/03/22 07:53:44;;;;;;;5.90;2.40;;;;;;;28.10;36.86;98466.16;5007752;28;20018;-76
2023/03/22 07:56:09;;;;;;;6.18;2.78;;;;;;;26.29;38.70;98474.22;5010087;28;20526;-79
2023/03/22 07:58:35;;;;;;;5.88;2.45;;;;;;;26.91;37.55;98469.88;5008603;28;20072;-85
2023/03/22 08:01:08;;;;;;;5.72;2.30;;;;;;;27.15;37.30;98487.00;5002532;28;20022;-81
2023/03/22 08:03:37;;;;;;;7.05;2.50;;;;;;;27.56;37.26;98474.72;5002125;28;20021;-77
2023/03/22 08:06:06;;;;;;;;;;;;;;;27.05;37.70;98481.72;5016870;28;20113;-76
2023/03/22 08:08:33;;;;;;;5.45;2.80;;;;;;;26.86;37.18;98480.00;5013266;28;19952;-79
2023/03/22 08:10:58;;;;;;;4.40;2.47;;;;;;;26.94;37.74;98466.50;5006961;28;20045;-79
2023/03/22 08:13:24;;;;;;;7.45;2.40;;;;;;;25.57;38.69;98461.16;5003678;28;20037;-77
2023/03/22 08:15:50;;;;;;;5.53;2.10;;;;;;;25.37;39.13;98484.59;5016169;28;20022;-74
2023/03/22 08:18:15;;;;;;;4.10;2.40;;;;;;;25.89;39.10;98474.06;5004996;28;20029;-79
2023/03/22 08:20:44;;;;;;;3.33;1.95;;;;;;;25.37;39.50;98481.81;4999321;28;20026;-80
2023/03/22 08:23:13;;;;;;;5.82;2.80;;;;;;;25.42;39.76;98476.16;5003578;28;20041;-76
2023/03/22 08:25:38;;;;;;;;;;;;;;;25.75;40.00;98473.22;5017713;28;20033;-77
2023/03/22 08:28:03;;;;;;;4.45;2.38;;;;;;;26.27;38.33;98473.72;5004651;28;19913;-76
2023/03/22 08:30:29;;;;;;;5.97;2.90;;;;;;;26.91;38.11;98469.88;4996024;28;20072;-75
2023/03/22 08:32:54;;;;;;;6.28;2.33;;;;;;;27.07;37.18;98469.16;5017320;28;20419;-76
2023/03/22 08:35:20;;;;;;;3.63;2.03;;;;;;;26.10;37.95;98454.19;5005036;28;20026;-80
2023/03/22 08:37:45;;;;;;;6.78;1.83;;;;;;;27.40;36.52;98452.13;5021099;28;21075;-78
2023/03/22 08:40:16;;;;;;;4.28;2.00;;;;;;;27.57;36.07;98458.91;5018263;28;20041;-80
2023/03/22 08:42:41;;;;;;;6.15;1.85;;;;;;;27.14;36.70;98457.56;5009662;28;20029;-77
2023/03/22 08:45:09;;;;;;;6.97;2.47;;;;;;;29.08;34.03;98444.22;5016814;28;20038;-77
2023/03/22 08:47:34;;;;;;;6.95;2.45;;;;;;;28.66;34.36;98450.38;5021058;28;20040;-75
2023/03/22 08:49:59;;;;;;;4.50;2.00;;;;;;;29.06;34.28;98458.50;5019179;28;20116;-79
2023/03/22 08:52:25;;;;;;;5.43;1.83;;;;;;;29.69;32.72;98462.28;5004998;28;20041;-80
2023/03/22 08:54:52;;;;;;;2.65;1.52;;;;;;;30.67;31.25;98459.16;4996750;28;20041;-82
2023/03/22 08:57:18;;;;;;;4.72;1.75;;;;;;;30.62;32.28;98453.78;4999064;28;20061;-80
2023/03/22 08:59:43;;;;;;;3.85;1.50;;;;;;;30.74;31.31;98448.25;5020072;28;20495;-78
2023/03/22 09:02:08;;;;;;;4.00;1.67;;;;;;;30.61;31.52;98443.78;4997062;28;20436;-79
2023/03/22 09:04:34;;;;;;;6.45;1.88;;;;;;;29.68;31.89;98445.88;5016317;28;20038;-82
2023/03/22 09:07:00;;;;;;;5.53;1.67;;;;;;;29.38;32.86;98440.31;5003953;28;20025;-80
2023/03/22 09:09:25;;;;;;;5.80;1.58;;;;;;;29.84;32.02;98427.41;4995627;28;20041;-81
2023/03/22 09:11:50;;;;;;;3.13;1.55;;;;;;;29.44;32.12;98433.38;5000229;28;20030;-80
2023/03/22 09:14:15;;;;;;;2.63;1.40;;;;;;;27.39;34.48;98433.03;5020490;28;20379;-79
2023/03/22 09:16:41;;;;;;;4.80;1.70;;;;;;;30.29;32.26;98439.84;5000279;28;20025;-80
2023/03/22 09:19:06;;;;;;;3.63;1.50;;;;;;;29.89;31.66;98421.63;5010859;28;20462;-80
2023/03/22 09:21:31;;;;;;;4.40;1.30;;;;;;;27.97;34.03;98388.13;5014581;28;20029;-78
2023/03/22 09:23:57;;;;;;;2.70;0.80;;;;;;;27.91;33.48;98433.13;5011829;28;20117;-84
2023/03/22 09:26:23;;;;;;;1.92;0.70;;;;;;;28.83;32.51;98438.41;4998221;28;20030;-81
2023/03/22 09:28:48;;;;;;;0.80;0.40;;;;;;;30.48;31.59;98428.97;5011052;28;20170;-86
2023/03/22 09:31:14;;;;;;;2.03;0.80;;;;;;;31.76;30.10;98422.44;4991127;28;20030;-79
2023/03/22 09:33:40;;;;;;;1.88;0.80;;;;;;;31.20;30.21;98428.63;5018420;28;20497;-87
2023/03/22 09:36:06;;;;;;;2.78;0.80;;;;;;;32.06;30.50;98420.16;5001191;28;20022;-83
2023/03/22 09:38:32;;;;;;;2.80;0.65;;;;;;;34.05;27.85;98422.78;4999884;28;20364;-83
2023/03/22 09:41:03;;;;;;;1.50;0.60;;;;;;;35.32;26.92;98408.75;5001669;28;20022;-82
2023/03/22 09:43:33;;;;;;;2.17;0.68;;;;;;;34.16;27.43;98412.63;4999282;28;20034;-82
2023/03/22 09:46:00;;;;;;;1.17;0.50;;;;;;;35.80;26.17;98416.69;5000653;28;20545;-82
2023/03/22 09:48:41;;;;;;;1.98;0.50;;;;;;;37.19;25.27;98400.53;5016585;28;20029;-83
2023/03/22 09:51:19;;;;;;;1.77;0.70;;;;;;;34.36;26.95;98401.38;5010062;28;20097;-83
2023/03/22 09:53:44;;;;;;;1.75;0.68;;;;;;;31.79;28.96;98402.16;5000476;28;20022;-80
2023/03/22 09:56:22;;;;;;;1.23;0.40;;;;;;;29.86;31.03;98408.34;4995728;28;20087;-79
2023/03/22 09:59:12;;;;;;;1.13;0.57;;;;;;;27.01;35.37;98405.75;4999707;28;20038;-83
2023/03/22 10:01:57;;;;;;;4.35;0.60;;;;;;;28.21;34.86;98402.66;4998126;28;20030;-83
2023/03/22 10:04:41;;;;;;;3.33;0.75;;;;;;;31.90;30.87;98389.28;4994747;28;20133;-81
2023/03/22 10:07:23;;;;;;;0.98;0.40;;;;;;;34.83;27.66;98377.78;5011760;28;20026;-84
2023/03/22 10:09:49;;;;;;;2.05;0.60;;;;;;;31.53;29.56;98383.78;4996808;28;20034;-81
2023/03/22 10:12:24;;;;;;;1.77;0.80;;;;;;;28.30;33.01;98393.16;5000205;28;20036;-75
2023/03/22 10:15:10;;;;;;;1.65;0.60;;;;;;;26.52;35.29;98396.59;5007724;28;20026;-75
2023/03/22 10:17:39;;;;;;;2.53;0.60;;;;;;;26.21;37.32;98392.59;5016783;28;20042;-75
2023/03/22 10:20:13;;;;;;;1.02;0.52;;;;;;;27.69;34.74;98389.56;5013518;28;20068;-75
2023/03/22 10:22:42;;;;;;;3.60;0.50;;;;;;;27.12;36.03;98393.22;5011126;28;20025;-75
2023/03/22 10:25:08;;;;;;;0.88;0.52;;;;;;;25.64;36.29;98388.72;5023082;28;20034;-74
2023/03/22 10:27:35;;;;;;;4.05;0.70;;;;;;;25.55;37.46;98389.47;5009392;28;20341;-77
2023/03/22 10:30:08;;;;;;;1.73;0.50;;;;;;;26.58;36.63;98384.19;5009597;28;20083;-83
2023/03/22 10:32:42;;;;;;;2.45;0.60;;;;;;;25.84;36.82;98373.56;5015545;28;20081;-82
2023/03/22 10:35:13;;;;;;;1.85;0.70;;;;;;;27.92;36.07;98365.22;4994850;28;20026;-76
2023/03/22 10:37:40;;;;;;;0.95;0.57;;;;;;;28.81;34.69;98354.38;4999512;28;20028;-81
2023/03/22 10:40:07;;;;;;;1.17;0.57;;;;;;;27.73;35.55;98365.56;4999451;28;20045;-78
2023/03/22 10:42:37;;;;;;;3.85;0.70;;;;;;;28.07;35.72;98367.50;5016794;28;20041;-78
2023/03/22 10:45:11;;;;;;;2.15;0.70;;;;;;;28.87;33.68;98357.78;4994929;28;20030;-78
2023/03/22 10:47:47;;;;;;;2.67;0.60;;;;;;;32.77;29.12;98351.28;5005405;28;20069;-80
2023/03/22 10:50:19;;;;;;;1.50;0.65;;;;;;;32.86;29.29;98360.34;4996250;28;20025;-79
2023/03/22 10:52:51;;;;;;;1.92;0.80;;;;;;;33.73;28.18;98346.34;5012030;28;20042;-78
2023/03/22 10:55:16;;;;;;;1.25;0.63;;;;;;;32.83;28.89;98361.06;5014532;28;20030;-79
2023/03/22 10:57:55;;;;;;;2.00;0.55;;;;;;;34.37;27.96;98352.44;5015156;28;20036;-78
2023/03/22 11:00:20;;;;;;;;;;;;;;;35.31;27.00;98358.47;5017814;28;20026;-78
2023/03/22 11:02:52;;;;;;;0.95;0.30;;;;;;;32.11;28.78;98349.13;4994589;28;19979;-78
2023/03/22 11:05:27;;;;;;;0.65;0.40;;;;;;;32.25;28.75;98344.75;4997898;28;20049;-81
2023/03/22 11:07:53;;;;;;;2.38;0.30;;;;;;;31.99;28.13;98350.81;4999011;28;20054;-80
2023/03/22 11:10:18;;;;;;;1.98;0.50;;;;;;;32.72;27.86;98351.56;5018212;28;20042;-78
2023/03/22 11:12:54;;;;;;;1.23;0.50;;;;;;;32.03;29.17;98339.72;5015775;28;20471;-79
2023/03/22 11:15:21;;;;;;;1.98;0.60;;;;;;;30.00;31.51;98348.66;5008329;28;20037;-79
2023/03/22 11:17:47;;;;;;;1.37;0.47;;;;;;;30.47;30.50;98331.59;5005094;28;20022;-84
2023/03/22 11:20:16;;;;;;;1.52;0.55;;;;;;;30.86;30.27;98343.28;4996343;28;20026;-80
2023/03/22 11:22:43;;;;;;;2.25;0.60;;;;;;;29.90;30.92;98322.03;5012256;28;20029;-80
2023/03/22 11:25:29;;;;;;;1.25;0.82;;;;;;;26.26;34.62;98333.44;4989148;28;20026;-78
2023/03/22 11:28:05;;;;;;;3.22;0.63;;;;;;;24.61;37.02;98346.59;4997209;28;20021;-78
2023/03/22 11:30:33;;;;;;;2.60;0.70;;;;;;;26.20;36.04;98324.44;4994686;28;20029;-79
2023/03/22 11:33:20;;;;;;;0.68;0.38;;;;;;;28.57;33.56;98343.84;4994248;28;20030;-79
2023/03/22 11:35:59;;;;;;;1.02;0.50;;;;;;;31.11;30.87;98333.75;5011059;28;20475;-79
2023/03/22 11:38:29;;;;;;;1.13;0.50;;;;;;;30.98;30.36;98318.97;5011264;28;20033;-79
2023/03/22 11:40:59;;;;;;;1.92;0.50;;;;;;;31.65;29.25;98327.03;4997737;28;20061;-79